Time;durP1;ratioP1;P1;durP2;ratioP2;P2;SDS_P1;SDS_P2;PMS_P1;PMS_P2;Temp;Humidity;BMP_temperature;BMP_pressure;BME280_temperature;BME280_humidity;BME280_pressure;Samples;Min_cycle;Max_cycle;Signal;HPM_P1;HPM_P2
2022/06/18 00:01:55;;;;;;;4.60;4.08;;;;;;;12.04;77.89;96159.86;1762457;81;21022;-66
2022/06/18 00:04:24;;;;;;;5.08;3.33;;;;;;;12.02;78.21;96158.13;1762600;81;21457;-66
2022/06/18 00:06:59;;;;;;;4.12;3.70;;;;;;;12.01;77.88;96161.23;1762611;81;21010;-66
2022/06/18 00:09:36;;;;;;;8.00;4.03;;;;;;;11.95;77.97;96166.63;1761869;81;21024;-66
2022/06/18 00:15:19;;;;;;;3.87;3.05;;;;;;;11.81;77.77;96172.52;1762540;81;21027;-66
2022/06/18 00:17:46;;;;;;;5.87;3.92;;;;;;;11.75;78.95;96169.52;1762456;81;21058;-66
2022/06/18 00:20:16;;;;;;;4.50;3.77;;;;;;;11.69;79.44;96171.81;1762611;81;21018;-66
2022/06/18 00:22:50;;;;;;;4.95;3.25;;;;;;;11.68;78.92;96167.85;1762596;81;21054;-66
2022/06/18 00:25:31;;;;;;;4.53;3.83;;;;;;;11.61;79.95;96166.19;1762625;81;20982;-66
2022/06/18 00:27:58;;;;;;;4.20;3.80;;;;;;;11.55;79.51;96167.60;1762585;81;21022;-66
2022/06/18 00:30:28;;;;;;;3.75;3.45;;;;;;;11.41;80.16;96172.59;1762699;81;20947;-66
2022/06/18 00:32:55;;;;;;;4.20;3.37;;;;;;;11.42;79.99;96166.44;1762271;81;21484;-66
2022/06/18 00:35:22;;;;;;;4.00;3.40;;;;;;;11.53;80.10;96168.93;1762673;81;21097;-66
2022/06/18 00:37:54;;;;;;;6.15;4.00;;;;;;;11.64;79.52;96167.03;1762398;81;21027;-66
2022/06/18 00:40:32;;;;;;;6.80;3.52;;;;;;;11.57;80.05;96166.69;1762548;81;21058;-66
2022/06/18 00:43:04;;;;;;;3.55;3.25;;;;;;;11.56;79.67;96164.92;1762613;81;20995;-66
2022/06/18 00:45:31;;;;;;;5.85;3.25;;;;;;;11.55;79.00;96170.24;1761540;81;21061;-66
2022/06/18 00:48:18;;;;;;;5.65;3.27;;;;;;;11.47;78.70;96175.63;1762329;81;21015;-66
2022/06/18 00:51:00;;;;;;;4.03;3.60;;;;;;;11.41;78.70;96176.56;1762454;81;20991;-66
2022/06/18 00:53:42;;;;;;;4.92;3.67;;;;;;;11.31;79.82;96170.96;1762082;81;21074;-66
2022/06/18 00:56:27;;;;;;;4.15;3.75;;;;;;;11.32;79.89;96176.70;1762482;81;21006;-66
2022/06/18 00:59:17;;;;;;;3.62;3.33;;;;;;;11.32;80.48;96168.77;1762222;81;20995;-66
2022/06/18 01:01:47;;;;;;;4.87;3.47;;;;;;;11.37;80.90;96167.39;1735048;81;20983;-66
2022/06/18 01:04:31;;;;;;;3.80;3.50;;;;;;;11.37;81.20;96166.94;1762702;81;21011;-66
2022/06/18 01:07:18;;;;;;;8.78;4.20;;;;;;;11.44;81.00;96173.00;1762505;81;21025;-66
2022/06/18 01:09:48;;;;;;;5.87;3.90;;;;;;;11.46;80.83;96168.58;1747238;81;21540;-66
2022/06/18 01:12:15;;;;;;;3.77;3.47;;;;;;;11.45;80.89;96163.75;1762609;81;20992;-66
2022/06/18 01:14:42;;;;;;;5.83;3.70;;;;;;;11.49;79.99;96159.31;1762444;81;21010;-66
2022/06/18 01:17:09;;;;;;;4.17;3.77;;;;;;;11.41;79.90;96154.09;1728381;81;21501;-66
2022/06/18 01:19:41;;;;;;;4.17;3.87;;;;;;;11.33;80.12;96161.70;1762636;81;21548;-66
2022/06/18 01:22:25;;;;;;;4.53;4.08;;;;;;;11.30;79.79;96161.75;1762657;81;20983;-66
2022/06/18 01:24:52;;;;;;;4.15;3.52;;;;;;;11.22;79.99;96153.92;1762432;81;21046;-66
2022/06/18 01:27:20;;;;;;;4.28;3.98;;;;;;;11.15;79.44;96151.79;1762510;81;21473;-66
2022/06/18 01:29:48;;;;;;;6.67;4.03;;;;;;;11.13;79.62;96160.63;1762403;81;21026;-66
2022/06/18 01:32:16;;;;;;;4.45;3.80;;;;;;;11.03;79.97;96161.17;1762529;81;20994;-66
2022/06/18 01:34:45;;;;;;;3.75;3.45;;;;;;;10.97;79.52;96161.25;1762604;81;21054;-66
2022/06/18 01:37:13;;;;;;;8.15;3.55;;;;;;;10.82;81.05;96165.80;1763963;81;21082;-66
2022/06/18 01:39:44;;;;;;;6.60;4.78;;;;;;;10.76;81.22;96167.20;1766472;81;21508;-65
2022/06/18 01:42:26;;;;;;;5.80;3.83;;;;;;;10.77;80.86;96167.61;1761683;81;21074;-66
2022/06/18 01:45:04;;;;;;;4.08;3.65;;;;;;;10.75;81.15;96168.52;1766393;81;21027;-66
2022/06/18 01:47:50;;;;;;;5.37;3.93;;;;;;;10.70;80.69;96169.88;1763801;81;21015;-66
2022/06/18 01:50:51;;;;;;;4.55;4.10;;;;;;;10.73;80.70;96167.20;1766518;81;21026;-66
2022/06/18 01:53:33;;;;;;;4.17;3.73;;;;;;;10.68;81.66;96165.05;1766595;81;21003;-66
2022/06/18 01:56:09;;;;;;;4.73;4.03;;;;;;;10.59;81.08;96166.03;1766387;81;21062;-66
2022/06/18 01:59:04;;;;;;;9.67;3.70;;;;;;;10.55;80.95;96170.89;1766467;81;21059;-66
2022/06/18 02:01:40;;;;;;;3.97;3.67;;;;;;;10.46;80.46;96165.72;1766226;81;21049;-66
2022/06/18 02:04:07;;;;;;;4.23;3.70;;;;;;;10.42;80.51;96164.44;1761434;81;21650;-66
2022/06/18 02:06:37;;;;;;;4.87;3.47;;;;;;;10.38;81.63;96169.75;1766238;81;21027;-66
2022/06/18 02:09:10;;;;;;;4.27;3.87;;;;;;;10.35;81.84;96172.84;1766371;81;21062;-66
2022/06/18 02:11:37;;;;;;;4.43;3.67;;;;;;;10.38;81.73;96176.34;1765543;81;21513;-66
2022/06/18 02:14:09;;;;;;;4.83;3.23;;;;;;;10.35;81.50;96186.89;1766364;81;21053;-66
2022/06/18 02:16:44;;;;;;;5.27;3.60;;;;;;;10.29;81.00;96179.05;1766535;81;21026;-66
2022/06/18 02:19:15;;;;;;;5.23;3.50;;;;;;;10.25;80.50;96181.69;1766313;81;21036;-66
2022/06/18 02:21:47;;;;;;;5.37;4.07;;;;;;;10.27;80.86;96181.23;1766346;81;21524;-66
2022/06/18 02:24:15;;;;;;;3.33;3.03;;;;;;;10.30;80.70;96182.10;1766471;81;21070;-66
2022/06/18 02:26:45;;;;;;;4.00;3.60;;;;;;;10.27;80.43;96179.47;1766274;81;21062;-66
2022/06/18 02:29:26;;;;;;;3.70;3.40;;;;;;;10.18;81.16;96178.23;1766440;81;21026;-66
2022/06/18 02:31:54;;;;;;;4.13;3.17;;;;;;;10.14;81.00;96181.77;1766171;81;21022;-66
2022/06/18 02:34:28;;;;;;;3.80;3.40;;;;;;;10.08;81.85;96187.08;1766266;81;21049;-66
2022/06/18 02:36:55;;;;;;;4.40;3.80;;;;;;;10.05;81.90;96184.47;1765877;81;21018;-66
2022/06/18 02:39:58;;;;;;;3.50;3.20;;;;;;;10.07;82.22;96186.66;1762455;81;21042;-66
2022/06/18 02:42:30;;;;;;;3.97;3.57;;;;;;;10.12;82.02;96183.54;1728016;81;21078;-66
2022/06/18 02:44:57;;;;;;;7.90;4.03;;;;;;;10.22;81.66;96189.63;1762676;81;21061;-66
2022/06/18 02:47:25;;;;;;;4.80;3.87;;;;;;;10.24;81.45;96196.64;1762424;81;21061;-66
2022/06/18 02:50:02;;;;;;;3.70;3.20;;;;;;;10.24;81.06;96197.09;1762625;81;21046;-66
2022/06/18 02:52:34;;;;;;;3.70;3.30;;;;;;;10.25;81.16;96191.78;1728672;81;21018;-66
2022/06/18 02:55:19;;;;;;;3.53;3.23;;;;;;;10.18;81.31;96196.25;1762306;81;21058;-66
2022/06/18 02:57:51;;;;;;;3.37;3.03;;;;;;;10.15;81.17;96200.23;1762544;81;21546;-66
2022/06/18 03:00:18;;;;;;;6.93;3.40;;;;;;;10.10;80.44;96195.41;1762469;81;20962;-66
2022/06/18 03:02:45;;;;;;;3.63;3.33;;;;;;;10.02;80.29;96199.86;1762467;81;21066;-66
2022/06/18 03:05:22;;;;;;;3.83;3.43;;;;;;;9.99;80.34;96195.94;1762658;81;20974;-66
2022/06/18 03:07:49;;;;;;;3.77;3.37;;;;;;;9.93;81.25;96190.27;1762721;81;21014;-66
2022/06/18 03:13:04;;;;;;;3.77;3.47;;;;;;;10.05;81.81;96198.97;1762516;81;21026;-66
2022/06/18 03:15:33;;;;;;;4.30;3.90;;;;;;;10.14;81.50;96201.55;1762444;81;20998;-66
2022/06/18 03:18:01;;;;;;;4.87;3.70;;;;;;;10.18;80.96;96203.30;1762523;81;21009;-66
2022/06/18 03:20:39;;;;;;;5.50;3.57;;;;;;;10.27;80.83;96200.56;1763044;81;20994;-66
2022/06/18 03:23:06;;;;;;;5.70;3.50;;;;;;;10.27;80.47;96201.02;1761535;81;21469;-66
2022/06/18 03:25:33;;;;;;;3.37;3.07;;;;;;;10.28;80.69;96203.69;1762658;81;21520;-66
2022/06/18 03:28:00;;;;;;;3.50;3.20;;;;;;;10.26;80.42;96202.78;1762169;81;21070;-66
2022/06/18 03:30:28;;;;;;;4.47;4.00;;;;;;;10.27;81.06;96201.02;1762633;81;21472;-66
2022/06/18 03:32:55;;;;;;;4.27;3.87;;;;;;;10.25;81.43;96197.51;1762477;81;21544;-66
2022/06/18 03:35:22;;;;;;;4.00;3.60;;;;;;;10.27;81.89;96195.29;1762060;81;21129;-66
2022/06/18 03:37:49;;;;;;;4.40;3.87;;;;;;;10.32;81.70;96198.80;1763878;81;21142;-66
2022/06/18 03:40:16;;;;;;;4.83;3.83;;;;;;;10.32;81.22;96200.56;1766616;81;21006;-66
2022/06/18 03:42:42;;;;;;;5.90;3.57;;;;;;;10.39;81.95;96206.23;1766398;81;21061;-66
2022/06/18 03:45:09;;;;;;;3.97;3.60;;;;;;;10.55;81.98;96203.88;1766248;81;20971;-66
2022/06/18 03:47:37;;;;;;;5.27;4.30;;;;;;;10.72;81.58;96202.42;1766013;81;21109;-66
2022/06/18 03:50:05;;;;;;;4.73;3.97;;;;;;;10.91;81.34;96200.91;1766029;81;21575;-66
2022/06/18 03:52:33;;;;;;;7.50;4.83;;;;;;;11.06;80.98;96203.38;1766474;81;20994;-66
2022/06/18 03:54:59;;;;;;;5.65;4.15;;;;;;;11.10;80.83;96203.80;1766645;81;20998;-66
2022/06/18 03:57:27;;;;;;;7.12;4.12;;;;;;;11.11;80.62;96199.38;1766160;81;21548;-66
2022/06/18 03:59:54;;;;;;;4.90;4.50;;;;;;;11.16;80.85;96196.23;1766278;81;21532;-66
2022/06/18 04:02:22;;;;;;;4.90;4.33;;;;;;;11.15;80.73;96186.58;1766473;81;21005;-66
2022/06/18 04:04:49;;;;;;;5.12;4.33;;;;;;;11.18;80.85;96191.82;1766221;81;21075;-66
2022/06/18 04:07:22;;;;;;;4.53;4.05;;;;;;;11.18;80.91;96190.50;1761611;81;21073;-66
2022/06/18 04:10:11;;;;;;;4.90;4.37;;;;;;;11.23;80.87;96190.00;1766136;81;21010;-66
2022/06/18 04:12:39;;;;;;;5.17;4.60;;;;;;;11.35;80.97;96184.58;1766270;81;21509;-66
2022/06/18 04:15:12;;;;;;;7.92;5.00;;;;;;;11.46;80.98;96180.47;1766356;81;21528;-66
2022/06/18 04:17:43;;;;;;;;;;;;;;;11.58;81.08;96187.38;1766102;81;21066;-66
2022/06/18 04:20:20;;;;;;;7.85;4.50;;;;;;;11.69;81.26;96186.35;1766393;81;20170;-66
2022/06/18 04:22:47;;;;;;;8.00;4.53;;;;;;;11.80;80.89;96182.23;1765536;81;21530;-66
2022/06/18 04:25:14;;;;;;;5.30;4.78;;;;;;;11.93;81.44;96184.28;1766210;81;20982;-66
2022/06/18 04:27:41;;;;;;;6.60;5.28;;;;;;;12.02;81.39;96183.26;1766309;81;20963;-66
2022/06/18 04:30:09;;;;;;;8.35;5.33;;;;;;;12.10;81.34;96182.27;1766316;81;21492;-66
2022/06/18 04:32:39;;;;;;;5.62;4.95;;;;;;;12.18;81.11;96180.83;1762121;81;21097;-66
2022/06/18 04:35:09;;;;;;;5.50;5.00;;;;;;;12.33;81.13;96185.00;1766348;81;21034;-66
2022/06/18 04:37:48;;;;;;;7.55;4.85;;;;;;;12.46;80.65;96177.73;1764910;81;21535;-66
2022/06/18 04:40:32;;;;;;;6.00;4.70;;;;;;;12.62;80.42;96186.28;1722312;81;21023;-66
2022/06/18 04:43:08;;;;;;;4.85;4.35;;;;;;;12.76;79.92;96186.92;1759885;81;20990;-66
2022/06/18 04:45:37;;;;;;;6.72;4.65;;;;;;;12.91;79.35;96184.00;1760560;81;21018;-66
2022/06/18 04:48:08;;;;;;;4.50;4.10;;;;;;;13.03;79.31;96174.97;1760951;81;20994;-66
2022/06/18 04:50:39;;;;;;;5.42;3.72;;;;;;;13.13;77.57;96187.13;1728610;81;21082;-66
2022/06/18 04:53:08;;;;;;;4.90;4.28;;;;;;;13.29;78.41;96174.48;1762340;81;21533;-66
2022/06/18 04:55:36;;;;;;;3.90;3.52;;;;;;;13.46;78.26;96178.12;1762457;81;21489;-66
2022/06/18 04:58:03;;;;;;;4.17;3.77;;;;;;;13.66;77.80;96179.03;1728456;81;21053;-66
2022/06/18 05:00:33;;;;;;;3.80;3.20;;;;;;;13.73;76.00;96176.64;1762262;81;21337;-66
2022/06/18 05:03:18;;;;;;;3.83;3.42;;;;;;;13.77;75.52;96175.69;1730344;81;21019;-66
2022/06/18 05:05:58;;;;;;;4.35;3.60;;;;;;;13.85;75.66;96176.38;1761485;81;21075;-66
2022/06/18 05:08:26;;;;;;;3.92;3.52;;;;;;;14.01;75.39;96177.36;1759946;81;21054;-66
2022/06/18 05:11:01;;;;;;;5.80;3.77;;;;;;;14.17;75.73;96177.45;1760676;81;21015;-66
2022/06/18 05:13:31;;;;;;;5.00;4.50;;;;;;;14.30;74.99;96178.02;1743474;81;21050;-66
2022/06/18 05:16:03;;;;;;;5.45;4.37;;;;;;;14.44;75.47;96175.05;1756604;81;21535;-66
2022/06/18 05:18:33;;;;;;;6.20;4.53;;;;;;;14.62;75.79;96179.94;1762113;81;21039;-66
2022/06/18 05:21:02;;;;;;;8.20;4.37;;;;;;;14.77;75.43;96180.47;1728418;81;21005;-66
2022/06/18 05:23:29;;;;;;;4.97;3.98;;;;;;;14.89;75.21;96172.15;1762429;81;21010;-66
2022/06/18 05:25:59;;;;;;;4.70;4.30;;;;;;;14.93;74.48;96181.80;1762617;81;20955;-66
2022/06/18 05:28:26;;;;;;;7.37;4.75;;;;;;;15.00;74.74;96178.07;1762371;81;21027;-66
2022/06/18 05:30:53;;;;;;;5.80;4.35;;;;;;;15.15;74.79;96183.43;1762777;81;21018;-66
2022/06/18 05:33:21;;;;;;;4.20;3.80;;;;;;;15.33;74.67;96179.39;1762609;81;21061;-66
2022/06/18 05:35:49;;;;;;;6.28;4.33;;;;;;;15.43;73.39;96182.20;1762565;81;20995;-66
2022/06/18 05:38:20;;;;;;;5.47;4.00;;;;;;;15.56;73.58;96183.59;1763819;81;21097;-66
2022/06/18 05:40:48;;;;;;;5.05;3.95;;;;;;;15.69;72.92;96185.47;1766363;81;21014;-66
2022/06/18 05:43:15;;;;;;;4.30;3.95;;;;;;;15.85;73.24;96185.02;1766052;81;21070;-66
2022/06/18 05:45:43;;;;;;;5.30;4.22;;;;;;;16.01;72.94;96192.50;1766427;81;21041;-66
2022/06/18 05:48:12;;;;;;;5.65;4.55;;;;;;;16.16;72.55;96195.16;1766107;81;20971;-66
2022/06/18 05:50:41;;;;;;;5.55;4.15;;;;;;;16.30;72.07;96192.05;1766248;81;21090;-66
2022/06/18 05:53:09;;;;;;;5.50;4.37;;;;;;;16.44;71.78;96171.65;1766361;81;20979;-66
2022/06/18 05:55:43;;;;;;;4.90;4.35;;;;;;;16.54;71.54;96188.20;1764453;81;21026;-66
2022/06/18 05:58:12;;;;;;;3.47;3.15;;;;;;;16.70;71.15;96198.75;1689171;81;21900;-66
2022/06/18 06:00:41;;;;;;;3.25;2.95;;;;;;;16.71;67.02;96200.98;1765386;81;21117;-66
2022/06/18 06:03:07;;;;;;;4.17;2.60;;;;;;;16.86;67.90;96196.04;1766158;81;21520;-66
2022/06/18 06:05:34;;;;;;;3.87;3.10;;;;;;;16.86;67.90;96196.04;1766326;81;21027;-66
2022/06/18 06:08:02;;;;;;;5.08;2.87;;;;;;;16.97;67.30;96192.14;1766115;81;21113;-66
2022/06/18 06:13:20;;;;;;;3.02;2.50;;;;;;;17.29;66.48;96199.88;1766489;81;21086;-66
2022/06/18 06:15:47;;;;;;;3.02;2.47;;;;;;;17.48;64.13;96206.75;1766581;81;21033;-67
2022/06/18 06:18:17;;;;;;;3.02;1.90;;;;;;;17.47;61.32;96205.49;1766315;81;21005;-66
2022/06/18 06:20:48;;;;;;;4.67;2.67;;;;;;;17.58;63.35;96199.29;1766397;81;21531;-66
2022/06/18 06:23:15;;;;;;;2.40;2.20;;;;;;;17.71;61.90;96199.27;1766454;81;21034;-66
2022/06/18 06:25:45;;;;;;;1.85;1.60;;;;;;;17.85;62.44;96197.91;1766368;81;20991;-66
2022/06/18 06:28:19;;;;;;;1.87;1.70;;;;;;;17.94;58.77;96194.43;1766283;81;21016;-67
2022/06/18 06:30:47;;;;;;;4.10;2.30;;;;;;;18.10;60.77;96194.70;1766382;81;21010;-67
2022/06/18 06:33:14;;;;;;;2.85;1.90;;;;;;;18.12;55.63;96195.99;1766454;81;20994;-66
2022/06/18 06:35:43;;;;;;;2.52;1.90;;;;;;;18.20;58.00;96197.03;1766386;81;20982;-66
2022/06/18 06:38:11;;;;;;;2.10;2.00;;;;;;;18.29;57.24;96192.64;1765482;81;21512;-66
2022/06/18 06:40:41;;;;;;;3.17;1.70;;;;;;;18.42;56.53;96196.59;1762349;81;21102;-66
2022/06/18 06:43:12;;;;;;;2.15;1.80;;;;;;;18.57;56.10;96193.30;1762428;81;21098;-66
2022/06/18 06:45:41;;;;;;;2.27;1.95;;;;;;;18.72;55.83;96195.81;1762381;81;21054;-66
2022/06/18 06:48:08;;;;;;;1.95;1.60;;;;;;;18.87;55.31;96195.65;1762551;81;21030;-66
2022/06/18 06:50:35;;;;;;;2.83;2.02;;;;;;;18.95;54.39;96192.66;1762415;81;21023;-67
2022/06/18 06:53:02;;;;;;;2.02;1.52;;;;;;;19.10;54.66;96192.47;1762605;81;21501;-66
2022/06/18 06:58:20;;;;;;;2.77;1.98;;;;;;;19.26;51.76;96196.25;1762664;81;21082;-66
2022/06/18 07:00:51;;;;;;;2.45;1.75;;;;;;;19.39;53.25;96190.75;1762490;81;21014;-66
2022/06/18 07:03:29;;;;;;;1.80;1.70;;;;;;;19.52;53.21;96188.88;1762649;81;20999;-67
2022/06/18 07:05:57;;;;;;;2.92;1.62;;;;;;;19.60;51.24;96187.58;1762422;81;20978;-66
2022/06/18 07:08:25;;;;;;;1.87;1.70;;;;;;;19.66;49.28;96190.00;1762543;81;21022;-66
2022/06/18 07:10:51;;;;;;;4.03;1.62;;;;;;;19.74;49.96;96193.70;1762763;81;20967;-66
2022/06/18 07:13:19;;;;;;;3.33;1.82;;;;;;;19.73;49.15;96186.62;1762376;81;20994;-66
2022/06/18 07:15:46;;;;;;;2.47;1.70;;;;;;;19.82;50.75;96188.86;1762746;81;20959;-66
2022/06/18 07:18:23;;;;;;;3.65;1.80;;;;;;;19.95;49.81;96184.28;1762292;81;21007;-66
2022/06/18 07:20:50;;;;;;;1.98;1.67;;;;;;;20.00;48.41;96192.98;1762410;81;20959;-66
2022/06/18 07:23:17;;;;;;;2.08;1.62;;;;;;;20.09;48.42;96188.06;1762475;81;21073;-66
2022/06/18 07:25:44;;;;;;;2.37;1.90;;;;;;;20.14;48.29;96193.69;1762965;81;20962;-66
2022/06/18 07:28:11;;;;;;;2.70;1.52;;;;;;;20.19;48.34;96190.33;1762067;81;21098;-66
2022/06/18 07:30:38;;;;;;;2.17;1.70;;;;;;;20.27;48.71;96189.48;1762622;81;21473;-67
2022/06/18 07:33:06;;;;;;;3.60;1.67;;;;;;;20.35;48.54;96191.80;1762513;81;21046;-67
2022/06/18 07:35:35;;;;;;;2.52;1.75;;;;;;;20.31;47.21;96182.57;1762410;81;21464;-66
2022/06/18 07:38:02;;;;;;;2.95;1.70;;;;;;;20.37;47.55;96185.42;1762526;81;21025;-66
2022/06/18 07:40:37;;;;;;;2.33;1.52;;;;;;;20.51;48.14;96184.73;1762529;81;21489;-67
2022/06/18 07:43:07;;;;;;;2.22;1.50;;;;;;;20.69;48.52;96183.89;1762459;81;21050;-66
2022/06/18 07:45:34;;;;;;;3.15;1.40;;;;;;;20.93;48.05;96195.20;1762649;81;21061;-67
2022/06/18 07:48:01;;;;;;;2.55;1.92;;;;;;;21.15;47.15;96190.97;1762410;81;21480;-67
2022/06/18 07:50:29;;;;;;;4.92;1.62;;;;;;;21.22;46.56;96196.02;1762505;81;21054;-66
2022/06/18 07:52:55;;;;;;;1.40;1.30;;;;;;;21.26;45.64;96198.95;1762607;81;20982;-67
2022/06/18 07:55:27;;;;;;;5.62;4.05;;;;;;;21.20;46.39;96194.77;1762496;81;21068;-67
2022/06/18 07:57:54;;;;;;;4.40;2.27;;;;;;;21.30;44.00;96197.37;1762561;81;21053;-66
2022/06/18 08:00:23;;;;;;;3.65;1.50;;;;;;;21.35;43.71;96201.17;1762284;81;21550;-67
2022/06/18 08:02:50;;;;;;;4.37;1.57;;;;;;;21.47;45.05;96197.89;1762526;81;20979;-66
2022/06/18 08:05:27;;;;;;;3.08;1.45;;;;;;;21.66;45.12;96203.14;1762569;81;21054;-67
2022/06/18 08:07:54;;;;;;;1.50;1.40;;;;;;;21.78;44.40;96202.50;1762624;81;20979;-67
2022/06/18 08:10:20;;;;;;;2.50;1.40;;;;;;;21.70;42.69;96199.84;1728492;81;21528;-67
2022/06/18 08:12:47;;;;;;;2.30;1.57;;;;;;;21.78;44.45;96199.81;1762565;81;21018;-67
2022/06/18 08:15:14;;;;;;;2.27;1.45;;;;;;;21.81;43.61;96198.78;1762673;81;21010;-67
2022/06/18 08:17:40;;;;;;;1.92;1.37;;;;;;;21.86;41.99;96191.82;1728685;81;21002;-67
2022/06/18 08:20:09;;;;;;;2.08;1.50;;;;;;;21.58;41.20;96186.09;1762182;81;21023;-67
2022/06/18 08:22:39;;;;;;;1.57;1.37;;;;;;;21.29;42.45;96190.28;1762568;81;21010;-67
2022/06/18 08:25:08;;;;;;;1.50;1.40;;;;;;;21.55;45.28;96190.29;1762436;81;21070;-67
2022/06/18 08:27:35;;;;;;;1.98;1.40;;;;;;;21.91;44.91;96186.59;1752578;81;20975;-67
2022/06/18 08:30:04;;;;;;;2.45;1.47;;;;;;;22.15;44.61;96188.88;1762083;81;21002;-67
2022/06/18 08:32:31;;;;;;;6.42;1.45;;;;;;;22.37;44.26;96187.25;1762766;81;20947;-67
2022/06/18 08:34:58;;;;;;;2.98;1.35;;;;;;;22.52;41.46;96194.45;1762093;81;21078;-66
2022/06/18 08:37:25;;;;;;;1.67;1.05;;;;;;;22.63;41.92;96183.97;1762271;81;21521;-67
2022/06/18 08:39:52;;;;;;;2.05;1.12;;;;;;;22.82;40.01;96190.48;1762494;81;21019;-66
2022/06/18 08:42:47;;;;;;;1.30;1.20;;;;;;;22.72;37.35;96190.63;1762381;81;21018;-67
2022/06/18 08:45:28;;;;;;;3.02;1.40;;;;;;;22.82;39.11;96189.63;1761495;81;21079;-67
2022/06/18 08:48:24;;;;;;;1.35;1.10;;;;;;;23.07;38.59;96185.06;1760355;81;21085;-67
2022/06/18 08:51:11;;;;;;;3.70;1.10;;;;;;;23.27;39.54;96182.54;1706829;81;21102;-67
2022/06/18 08:53:51;;;;;;;4.42;1.30;;;;;;;23.18;34.31;96179.90;1759918;81;21027;-67
2022/06/18 08:56:38;;;;;;;1.92;1.20;;;;;;;23.17;36.65;96180.88;1762323;81;21002;-67
2022/06/18 08:59:38;;;;;;;2.27;1.10;;;;;;;23.27;37.32;96175.33;1762229;81;21030;-67
2022/06/18 09:02:28;;;;;;;1.92;1.40;;;;;;;23.49;39.02;96170.87;1762175;81;21540;-67
2022/06/18 09:05:45;;;;;;;1.30;1.20;;;;;;;23.54;36.05;96168.77;1762176;81;21015;-67
2022/06/18 09:08:35;;;;;;;1.55;1.20;;;;;;;23.65;37.57;96170.79;1762688;81;21046;-67
2022/06/18 09:11:49;;;;;;;2.10;1.27;;;;;;;23.78;37.77;96179.02;1762589;81;20983;-67
2022/06/18 09:14:39;;;;;;;2.37;1.30;;;;;;;23.95;37.79;96175.28;1762593;81;21075;-67
2022/06/18 09:17:29;;;;;;;1.92;1.20;;;;;;;24.30;38.45;96173.05;1762361;81;21540;-67
2022/06/18 09:20:11;;;;;;;2.40;1.47;;;;;;;24.45;34.52;96169.89;1762331;81;21043;-67
2022/06/18 09:22:55;;;;;;;1.50;1.40;;;;;;;24.05;36.87;96183.17;1762344;81;21026;-67
2022/06/18 09:25:26;;;;;;;2.08;1.50;;;;;;;23.88;37.29;96176.13;1762149;81;20971;-67
2022/06/18 09:28:11;;;;;;;1.70;1.40;;;;;;;24.29;38.26;96174.48;1745621;81;21106;-67
2022/06/18 09:30:43;;;;;;;1.30;1.20;;;;;;;24.22;38.04;96168.64;1762189;81;20974;-67
2022/06/18 09:33:18;;;;;;;2.55;1.50;;;;;;;24.14;35.76;96166.42;1762578;81;21014;-67
2022/06/18 09:35:58;;;;;;;2.33;1.60;;;;;;;23.67;36.25;96166.66;1762218;81;21042;-67
2022/06/18 09:39:01;;;;;;;2.47;1.40;;;;;;;23.16;38.48;96172.88;1762704;81;20999;-67
2022/06/18 09:41:39;;;;;;;3.55;1.40;;;;;;;22.80;39.09;96182.12;1762600;81;21010;-67
2022/06/18 09:44:23;;;;;;;1.77;1.52;;;;;;;22.41;39.22;96182.10;1730778;81;21046;-67
2022/06/18 09:47:04;;;;;;;2.98;1.57;;;;;;;22.54;40.08;96180.94;1762940;81;21046;-67
2022/06/18 09:49:31;;;;;;;2.40;1.57;;;;;;;22.77;39.51;96173.75;1762736;81;21460;-67
2022/06/18 09:52:05;;;;;;;1.60;1.50;;;;;;;23.04;40.15;96183.91;1762635;81;21014;-67
2022/06/18 09:54:48;;;;;;;1.70;1.60;;;;;;;23.34;39.95;96185.27;1762629;81;21516;-67
2022/06/18 09:57:18;;;;;;;;;;;;;;;23.40;39.34;96181.33;1765256;81;21508;-67
2022/06/18 10:00:04;;;;;;;3.17;1.40;;;;;;;23.13;38.86;96190.56;1762729;81;20110;-67
2022/06/18 10:02:37;;;;;;;2.05;1.30;;;;;;;23.24;37.25;96176.00;1762204;81;21058;-67
2022/06/18 10:07:55;;;;;;;3.22;2.10;;;;;;;23.97;36.72;96178.27;1762683;81;21031;-67
2022/06/18 10:10:26;;;;;;;4.28;2.77;;;;;;;23.96;35.35;96172.50;1762372;81;21030;-67
2022/06/18 10:12:57;;;;;;;4.83;1.85;;;;;;;23.85;35.38;96174.98;1762720;81;21500;-67
2022/06/18 10:15:25;;;;;;;3.92;2.70;;;;;;;23.63;35.08;96176.74;1762781;81;20983;-67
2022/06/18 10:18:39;;;;;;;3.05;2.75;;;;;;;23.27;36.31;96176.67;1762736;81;21022;-67
2022/06/18 10:21:29;;;;;;;;;;;;;;;23.15;37.78;96181.44;1765428;81;21050;-67
2022/06/18 10:24:07;;;;;;;2.60;1.50;;;;;;;23.15;37.78;96176.05;1762542;81;20134;-67
2022/06/18 10:27:06;;;;;;;1.65;1.50;;;;;;;23.39;38.32;96170.18;1762633;81;21488;-67
2022/06/18 10:29:59;;;;;;;1.67;1.47;;;;;;;24.05;38.89;96164.30;1762506;81;21034;-67
2022/06/18 10:32:41;;;;;;;;;;;;;;;24.75;36.30;96169.72;1764954;81;21002;-67
2022/06/18 10:35:39;;;;;;;2.45;1.22;;;;;;;24.58;33.98;96167.25;1762509;81;20396;-67
2022/06/18 10:38:31;;;;;;;2.65;1.40;;;;;;;24.15;34.71;96172.19;1762670;81;21022;-67
2022/06/18 10:41:39;;;;;;;2.50;1.50;;;;;;;23.73;34.24;96167.66;1764626;81;21078;-67
2022/06/18 10:44:45;;;;;;;1.60;1.47;;;;;;;23.42;36.13;96169.98;1766361;81;20963;-67
2022/06/18 10:47:18;;;;;;;9.93;5.35;;;;;;;23.27;36.41;96169.94;1749370;81;21026;-67
2022/06/18 10:49:46;;;;;;;3.05;1.77;;;;;;;23.37;35.71;96166.70;1766484;81;21037;-67
2022/06/18 10:52:24;;;;;;;1.70;1.20;;;;;;;23.81;36.08;96159.09;1765724;81;21054;-67
2022/06/18 10:55:07;;;;;;;2.45;1.35;;;;;;;24.39;35.10;96163.03;1766397;81;21034;-67
2022/06/18 10:57:34;;;;;;;2.95;1.20;;;;;;;24.61;32.51;96164.34;1765885;81;21062;-67
2022/06/18 11:00:26;;;;;;;1.40;1.20;;;;;;;24.37;33.24;96163.61;1766451;81;21022;-67
2022/06/18 11:02:56;;;;;;;1.93;1.13;;;;;;;24.19;32.57;96158.91;1766893;81;21038;-67
2022/06/18 11:05:38;;;;;;;1.30;1.12;;;;;;;24.56;32.42;96159.25;1765506;81;20997;-67
2022/06/18 11:08:27;;;;;;;1.50;1.37;;;;;;;24.77;32.63;96161.50;1766550;81;21090;-67
2022/06/18 11:11:04;;;;;;;1.45;1.20;;;;;;;24.67;33.11;96156.33;1766436;81;21492;-67
2022/06/18 11:13:44;;;;;;;3.72;1.35;;;;;;;24.39;32.92;96160.33;1766340;81;21468;-67
2022/06/18 11:16:21;;;;;;;1.00;1.00;;;;;;;24.37;33.92;96154.16;1766335;81;20982;-67
2022/06/18 11:18:54;;;;;;;1.47;1.20;;;;;;;24.42;34.54;96152.52;1766059;81;21510;-67
2022/06/18 11:21:39;;;;;;;2.12;1.20;;;;;;;24.48;34.58;96161.59;1766176;81;21074;-66
2022/06/18 11:24:23;;;;;;;1.30;1.20;;;;;;;24.48;35.39;96146.75;1766047;81;21018;-67
2022/06/18 11:26:55;;;;;;;1.20;1.10;;;;;;;24.66;36.99;96150.56;1764530;81;21061;-66
2022/06/18 11:29:33;;;;;;;2.87;1.35;;;;;;;24.94;33.60;96141.49;1762048;81;21067;-66
2022/06/18 11:32:07;;;;;;;1.95;1.55;;;;;;;25.40;33.07;96140.62;1766428;81;21027;-67
2022/06/18 11:34:38;;;;;;;3.92;1.45;;;;;;;25.92;34.00;96137.97;1765259;81;21535;-66
2022/06/18 11:37:22;;;;;;;2.50;1.25;;;;;;;26.07;31.47;96140.44;1736392;81;21545;-67
2022/06/18 11:40:03;;;;;;;1.72;1.30;;;;;;;25.91;31.52;96135.77;1765166;81;20999;-67
2022/06/18 11:42:51;;;;;;;1.37;1.20;;;;;;;26.30;32.57;96134.71;1762627;81;21496;-66
2022/06/18 11:45:45;;;;;;;3.08;1.30;;;;;;;26.50;30.72;96129.20;1760662;81;21034;-67
2022/06/18 11:48:38;;;;;;;2.80;1.00;;;;;;;26.21;30.41;96136.75;1762608;81;21018;-66
2022/06/18 11:51:27;;;;;;;3.20;1.20;;;;;;;25.92;29.89;96133.42;1762651;81;20967;-66
2022/06/18 11:53:59;;;;;;;1.20;1.10;;;;;;;25.66;31.03;96125.78;1762486;81;21484;-66
2022/06/18 11:56:40;;;;;;;4.92;2.15;;;;;;;25.64;31.88;96131.28;1761596;81;21054;-67
2022/06/18 11:59:24;;;;;;;1.45;1.20;;;;;;;25.97;31.35;96125.84;1748036;81;21058;-67
2022/06/18 12:02:03;;;;;;;1.40;1.27;;;;;;;25.92;31.60;96123.10;1762373;81;21512;-67
2022/06/18 12:04:38;;;;;;;1.55;1.42;;;;;;;26.01;31.93;96119.75;1761886;81;21035;-67
2022/06/18 12:07:22;;;;;;;3.80;1.47;;;;;;;26.50;31.00;96120.22;1762415;81;21106;-67
2022/06/18 12:09:49;;;;;;;1.40;1.30;;;;;;;27.21;31.30;96114.48;1759296;81;21051;-67
2022/06/18 12:12:36;;;;;;;1.62;1.17;;;;;;;27.82;29.08;96111.09;1762593;81;21528;-67
2022/06/18 12:15:32;;;;;;;1.32;1.17;;;;;;;28.30;27.41;96099.61;1762538;81;21078;-67
2022/06/18 12:18:26;;;;;;;3.50;1.30;;;;;;;28.79;25.61;96103.76;1762835;81;20955;-67
2022/06/18 12:21:13;;;;;;;1.22;1.12;;;;;;;29.16;27.53;96096.13;1761348;81;21011;-67
2022/06/18 12:24:00;;;;;;;1.22;0.82;;;;;;;29.49;24.23;96098.30;1744910;82;21001;-67